createdAt,value
2019-05-05T00:01:45.046Z,4.43
2019-05-05T00:04:21.577Z,4.70
2019-05-05T00:06:52.406Z,5.27
2019-05-05T00:09:25.200Z,4.93
2019-05-05T00:11:55.292Z,5.20
2019-05-05T00:14:28.112Z,5.03
2019-05-05T00:17:10.144Z,4.77
2019-05-05T00:19:38.676Z,4.50
2019-05-05T00:22:07.190Z,4.67
2019-05-05T00:24:35.741Z,5.10
2019-05-05T00:27:04.394Z,5.37
2019-05-05T00:29:34.710Z,5.03
2019-05-05T00:32:04.921Z,5.03
2019-05-05T00:34:34.962Z,5.10
2019-05-05T00:37:04.624Z,5.40
2019-05-05T00:39:34.519Z,5.33
2019-05-05T00:42:04.780Z,5.07
2019-05-05T00:44:35.246Z,5.43
2019-05-05T00:47:05.552Z,4.80
2019-05-05T00:49:45.530Z,5.47
2019-05-05T00:52:09.081Z,5.20
2019-05-05T00:54:37.578Z,5.40
2019-05-05T00:57:06.148Z,5.50
2019-05-05T00:59:34.872Z,5.00
2019-05-05T01:02:20.232Z,5.60
2019-05-05T01:04:50.537Z,5.70
2019-05-05T01:07:19.103Z,5.90
2019-05-05T01:09:47.631Z,5.13
2019-05-05T01:12:16.619Z,5.47
2019-05-05T01:14:45.149Z,5.30
2019-05-05T01:17:14.693Z,5.53
2019-05-05T01:19:45.385Z,5.50
2019-05-05T01:22:14.397Z,5.60
2019-05-05T01:24:43.215Z,5.40
2019-05-05T01:27:11.733Z,5.80
2019-05-05T01:29:40.283Z,5.70
2019-05-05T01:32:10.366Z,5.80
2019-05-05T01:34:40.450Z,5.70
2019-05-05T01:37:10.530Z,5.20
2019-05-05T01:39:45.241Z,5.63
2019-05-05T01:42:15.508Z,5.57
2019-05-05T01:44:44.776Z,5.73
2019-05-05T01:47:14.787Z,6.07
2019-05-05T01:49:45.294Z,6.33
2019-05-05T01:52:14.864Z,5.90
2019-05-05T01:54:44.651Z,6.37
2019-05-05T01:57:14.856Z,6.10
2019-05-05T01:59:44.860Z,6.37
2019-05-05T02:02:14.604Z,6.20
2019-05-05T02:04:44.689Z,6.73
2019-05-05T02:07:14.540Z,6.47
2019-05-05T02:09:44.824Z,6.30
2019-05-05T02:12:15.876Z,6.63
2019-05-05T02:14:44.554Z,6.13
2019-05-05T02:17:14.364Z,6.30
2019-05-05T02:19:44.328Z,6.47
2019-05-05T02:22:14.615Z,6.07
2019-05-05T02:24:44.453Z,6.03
2019-05-05T02:27:14.549Z,6.40
2019-05-05T02:29:44.861Z,5.70
2019-05-05T02:32:31.353Z,5.93
2019-05-05T02:35:01.557Z,6.00
2019-05-05T02:37:30.138Z,5.93
2019-05-05T02:40:03.320Z,6.23
2019-05-05T02:42:30.153Z,6.63
2019-05-05T02:45:05.015Z,6.53
2019-05-05T02:47:54.941Z,6.00
2019-05-05T02:50:25.117Z,6.20
2019-05-05T02:52:54.800Z,7.07
2019-05-05T02:55:24.018Z,5.83
2019-05-05T02:57:54.425Z,6.70
2019-05-05T03:00:24.725Z,6.47
2019-05-05T03:02:55.866Z,6.27
2019-05-05T03:05:24.822Z,6.43
2019-05-05T03:07:54.397Z,6.70
2019-05-05T03:10:24.564Z,6.80
2019-05-05T03:12:54.414Z,7.40
2019-05-05T03:15:48.926Z,7.00
2019-05-05T03:18:17.579Z,6.70
2019-05-05T03:20:46.248Z,7.20
2019-05-05T03:23:15.022Z,6.97
2019-05-05T03:25:44.126Z,6.60
2019-05-05T03:28:13.721Z,7.33
2019-05-05T03:30:45.313Z,6.50
2019-05-05T03:33:16.002Z,6.57
2019-05-05T03:35:45.586Z,7.00
2019-05-05T03:38:14.280Z,6.80
2019-05-05T03:40:44.661Z,6.87
2019-05-05T03:43:20.876Z,6.60
2019-05-05T03:45:51.101Z,6.57
2019-05-05T03:48:20.140Z,7.40
2019-05-05T03:50:48.992Z,6.73
2019-05-05T03:53:17.752Z,6.87
2019-05-05T03:55:46.288Z,6.90
2019-05-05T03:58:14.823Z,7.23
2019-05-05T04:00:52.351Z,7.03
2019-05-05T04:03:20.891Z,6.47
2019-05-05T04:05:53.987Z,6.73
2019-05-05T04:08:23.484Z,6.60
2019-05-05T04:10:54.502Z,6.73
2019-05-05T04:13:24.169Z,6.03
2019-05-05T04:16:10.743Z,6.47
2019-05-05T04:18:43.647Z,5.80
2019-05-05T04:21:14.372Z,6.63
2019-05-05T04:23:44.068Z,6.07
2019-05-05T04:26:14.261Z,6.17
2019-05-05T04:28:43.625Z,6.63
2019-05-05T04:31:13.536Z,5.40
2019-05-05T04:33:44.353Z,5.50
2019-05-05T04:36:14.334Z,6.30
2019-05-05T04:38:43.954Z,6.37
2019-05-05T04:41:14.063Z,5.50
2019-05-05T04:43:44.216Z,4.60
2019-05-05T04:46:14.006Z,4.77
2019-05-05T04:48:56.328Z,4.80
2019-05-05T04:51:26.424Z,3.57
2019-05-05T04:54:14.188Z,3.50
2019-05-05T04:56:44.771Z,3.83
2019-05-05T04:59:14.426Z,3.47
2019-05-05T05:01:43.995Z,3.57
2019-05-05T05:04:24.333Z,3.33
2019-05-05T05:06:54.629Z,3.90
2019-05-05T05:09:23.780Z,3.70
2019-05-05T05:11:54.547Z,3.30
2019-05-05T05:14:24.646Z,3.20
2019-05-05T05:16:54.251Z,3.27
2019-05-05T05:19:24.210Z,3.40
2019-05-05T05:22:01.700Z,3.03
2019-05-05T05:24:23.761Z,2.87
2019-05-05T05:26:52.417Z,2.83
2019-05-05T05:29:20.867Z,2.90
2019-05-05T05:31:49.334Z,3.30
2019-05-05T05:34:17.782Z,3.10
2019-05-05T05:36:46.701Z,3.13
2019-05-05T05:39:16.802Z,2.90
2019-05-05T05:41:46.904Z,2.97
2019-05-05T05:44:17.246Z,3.07
2019-05-05T05:46:54.586Z,3.03
2019-05-05T05:49:30.782Z,2.50
2019-05-05T05:52:12.375Z,2.83
2019-05-05T05:54:29.906Z,2.90
2019-05-05T05:56:58.368Z,2.67
2019-05-05T05:59:26.990Z,2.87
2019-05-05T06:02:09.088Z,2.63
2019-05-05T06:04:25.697Z,2.60
2019-05-05T06:06:54.450Z,2.70
2019-05-05T06:09:23.794Z,2.70
2019-05-05T06:11:54.086Z,2.58
2019-05-05T06:14:24.587Z,2.90
2019-05-05T06:16:53.941Z,2.45
2019-05-05T06:19:24.500Z,2.60
2019-05-05T06:21:54.295Z,2.50
2019-05-05T06:24:24.026Z,3.05
2019-05-05T06:26:54.571Z,2.52
2019-05-05T06:29:23.885Z,2.50
2019-05-05T06:31:53.750Z,2.70
2019-05-05T06:34:24.295Z,2.42
2019-05-05T06:36:53.769Z,2.45
2019-05-05T06:39:24.038Z,2.80
2019-05-05T06:41:57.311Z,2.60
2019-05-05T06:44:27.441Z,2.05
2019-05-05T06:47:06.695Z,3.72
2019-05-05T06:49:35.321Z,5.03
2019-05-05T06:52:04.277Z,3.80
2019-05-05T06:54:34.651Z,3.10
2019-05-05T06:57:04.494Z,4.78
2019-05-05T06:59:34.977Z,3.65
2019-05-05T07:02:04.324Z,2.20
2019-05-05T07:04:34.008Z,2.62
2019-05-05T07:07:04.879Z,3.10
2019-05-05T07:09:33.633Z,3.22
2019-05-05T07:12:04.311Z,3.45
2019-05-05T07:14:34.031Z,3.10
2019-05-05T07:17:04.895Z,2.35
2019-05-05T07:19:34.496Z,2.15
2019-05-05T07:22:04.077Z,2.85
2019-05-05T07:24:34.462Z,2.70
2019-05-05T07:27:04.764Z,2.67
2019-05-05T07:29:34.302Z,1.80
2019-05-05T07:32:03.990Z,1.57
2019-05-05T07:34:39.864Z,1.90
2019-05-05T07:37:08.352Z,1.65
2019-05-05T07:39:36.858Z,1.92
2019-05-05T07:42:05.326Z,1.65
2019-05-05T07:44:33.986Z,8.58
2019-05-05T07:47:03.671Z,1.30
2019-05-05T07:49:33.559Z,1.40
2019-05-05T07:52:03.958Z,1.20
2019-05-05T07:54:34.171Z,1.32
2019-05-05T07:57:04.217Z,1.30
2019-05-05T07:59:34.058Z,2.80
2019-05-05T08:02:03.973Z,1.35
2019-05-05T08:04:34.609Z,1.40
2019-05-05T08:07:11.492Z,1.20
2019-05-05T08:09:53.581Z,1.40
2019-05-05T08:12:22.133Z,1.70
2019-05-05T08:14:55.927Z,2.02
2019-05-05T08:17:29.807Z,1.95
2019-05-05T08:20:03.994Z,2.08
2019-05-05T08:22:33.985Z,2.15
2019-05-05T08:25:10.188Z,2.87
2019-05-05T08:27:53.706Z,2.22
2019-05-05T08:30:26.981Z,2.80
2019-05-05T08:32:55.739Z,2.70
2019-05-05T08:35:24.255Z,3.60
2019-05-05T08:37:54.260Z,2.80
2019-05-05T08:40:23.990Z,2.17
2019-05-05T08:42:53.894Z,3.10
2019-05-05T08:45:26.159Z,5.20
2019-05-05T08:47:54.205Z,2.23
2019-05-05T08:50:26.773Z,2.77
2019-05-05T08:52:53.787Z,3.33
2019-05-05T08:55:28.346Z,2.90
2019-05-05T08:57:55.185Z,1.97
2019-05-05T09:00:24.439Z,2.07
2019-05-05T09:02:54.309Z,2.27
2019-05-05T09:05:23.833Z,2.60
2019-05-05T09:07:54.610Z,1.97
2019-05-05T09:10:23.660Z,2.03
2019-05-05T09:12:54.254Z,2.30
2019-05-05T09:15:24.285Z,2.22
2019-05-05T09:17:54.496Z,2.35
2019-05-05T09:20:24.227Z,2.50
2019-05-05T09:22:53.537Z,2.22
2019-05-05T09:25:26.567Z,2.10
2019-05-05T09:28:02.955Z,2.10
2019-05-05T09:30:35.875Z,2.75
2019-05-05T09:33:05.183Z,2.30
2019-05-05T09:35:34.301Z,2.95
2019-05-05T09:38:04.065Z,2.40
2019-05-05T09:40:41.162Z,2.43
2019-05-05T09:43:10.075Z,2.80
2019-05-05T09:45:39.185Z,2.20
2019-05-05T09:48:07.930Z,3.07
2019-05-05T09:50:36.451Z,2.07
2019-05-05T09:53:05.005Z,2.47
2019-05-05T09:55:33.629Z,2.10
2019-05-05T09:58:04.359Z,2.03
2019-05-05T10:00:34.123Z,2.40
2019-05-05T10:03:03.821Z,2.00
2019-05-05T10:05:34.236Z,3.03
2019-05-05T10:08:03.566Z,2.20
2019-05-05T10:10:33.750Z,2.00
2019-05-05T10:13:04.193Z,2.23
2019-05-05T10:15:32.571Z,2.53
2019-05-05T10:18:01.036Z,3.33
2019-05-05T10:20:29.552Z,2.73
2019-05-05T10:22:58.077Z,2.90
2019-05-05T10:25:34.160Z,2.40
2019-05-05T10:28:04.220Z,2.43
2019-05-05T10:30:33.167Z,2.43
2019-05-05T10:33:03.618Z,2.17
2019-05-05T10:35:31.854Z,2.27
2019-05-05T10:38:00.396Z,2.40
2019-05-05T10:40:34.071Z,2.10
2019-05-05T10:43:04.439Z,2.30
2019-05-05T10:45:33.082Z,3.23
2019-05-05T10:48:03.871Z,2.60
2019-05-05T10:50:33.892Z,2.97
2019-05-05T10:53:04.246Z,2.83
2019-05-05T10:55:34.378Z,3.10
2019-05-05T10:58:02.450Z,3.17
2019-05-05T11:00:39.810Z,2.65
2019-05-05T11:03:08.393Z,2.60
2019-05-05T11:05:36.833Z,2.67
2019-05-05T11:08:05.460Z,2.80
2019-05-05T11:10:35.071Z,2.97
2019-05-05T11:13:04.013Z,3.10
2019-05-05T11:15:33.570Z,3.00
2019-05-05T11:18:07.211Z,2.53
2019-05-05T11:20:51.002Z,3.20
2019-05-05T11:23:19.496Z,3.23
2019-05-05T11:25:47.982Z,2.87
2019-05-05T11:28:16.494Z,3.30
2019-05-05T11:30:46.898Z,2.47
2019-05-05T11:33:34.418Z,3.30
2019-05-05T11:36:04.745Z,3.20
2019-05-05T11:38:33.879Z,3.57
2019-05-05T11:41:04.770Z,3.53
2019-05-05T11:43:33.807Z,4.17
2019-05-05T11:46:02.579Z,3.10
2019-05-05T11:48:31.170Z,3.53
2019-05-05T11:50:59.646Z,3.03
2019-05-05T11:53:28.116Z,3.00
2019-05-05T11:55:56.626Z,2.67
2019-05-05T11:58:25.110Z,3.20
2019-05-05T12:00:54.514Z,2.90
2019-05-05T12:03:23.297Z,2.90
2019-05-05T12:05:51.799Z,3.03
2019-05-05T12:08:20.257Z,2.67
2019-05-05T12:10:56.145Z,3.53
2019-05-05T12:13:24.623Z,2.30
2019-05-05T12:15:54.816Z,2.67
2019-05-05T12:18:23.801Z,3.30
2019-05-05T12:20:54.263Z,2.80
2019-05-05T12:23:22.658Z,2.70
2019-05-05T12:25:56.895Z,3.03
2019-05-05T12:28:36.353Z,3.00
2019-05-05T12:31:15.450Z,5.50
2019-05-05T12:33:44.246Z,4.17
2019-05-05T12:36:14.894Z,3.77
2019-05-05T12:38:43.919Z,3.60
2019-05-05T12:41:14.581Z,3.20
2019-05-05T12:43:44.177Z,3.50
2019-05-05T12:46:17.369Z,3.47
2019-05-05T12:48:47.459Z,3.60
2019-05-05T12:51:15.902Z,3.93
2019-05-05T12:53:44.359Z,3.70
2019-05-05T12:56:14.604Z,3.40
2019-05-05T12:58:43.977Z,4.33
2019-05-05T13:01:14.454Z,3.60
2019-05-05T13:03:43.740Z,3.30
2019-05-05T13:06:14.481Z,3.10
2019-05-05T13:08:44.467Z,3.30
2019-05-05T13:11:12.864Z,3.30
2019-05-05T13:13:41.319Z,3.77
2019-05-05T13:16:09.982Z,3.33
2019-05-05T13:18:38.631Z,3.07
2019-05-05T13:21:25.244Z,3.87
2019-05-05T13:23:57.979Z,3.43
2019-05-05T13:26:44.687Z,3.67
2019-05-05T13:29:13.934Z,2.93
2019-05-05T13:31:44.164Z,3.17
2019-05-05T13:34:13.629Z,3.23
2019-05-05T13:36:44.137Z,3.20
2019-05-05T13:39:14.378Z,3.30
2019-05-05T13:41:44.660Z,3.30
2019-05-05T13:44:29.244Z,3.43
2019-05-05T13:46:57.732Z,3.37
2019-05-05T13:49:33.780Z,3.87
2019-05-05T13:52:04.635Z,3.30
2019-05-05T13:54:33.578Z,4.17
2019-05-05T13:57:03.904Z,3.30
2019-05-05T13:59:33.938Z,3.07
2019-05-05T14:02:02.538Z,3.03
2019-05-05T14:04:31.063Z,2.93
2019-05-05T14:06:59.542Z,2.93
2019-05-05T14:09:28.166Z,3.07
2019-05-05T14:11:56.610Z,3.50
2019-05-05T14:14:25.136Z,3.17
2019-05-05T14:16:53.848Z,3.10
2019-05-05T14:19:24.712Z,2.73
2019-05-05T14:21:53.838Z,3.10
2019-05-05T14:24:39.449Z,3.83
2019-05-05T14:27:07.981Z,3.87
2019-05-05T14:29:47.102Z,3.83
2019-05-05T14:32:17.208Z,4.00
2019-05-05T14:34:47.315Z,3.53
2019-05-05T14:37:33.892Z,4.10
2019-05-05T14:40:04.612Z,3.67
2019-05-05T14:42:34.172Z,2.80
2019-05-05T14:45:04.756Z,3.97
2019-05-05T14:47:33.668Z,3.93
2019-05-05T14:50:04.536Z,3.53
2019-05-05T14:52:32.402Z,3.83
2019-05-05T14:55:00.846Z,3.30
2019-05-05T14:57:29.479Z,4.00
2019-05-05T14:59:57.937Z,3.53
2019-05-05T15:02:26.507Z,4.10
2019-05-05T15:04:56.605Z,4.07
2019-05-05T15:07:29.654Z,4.30
2019-05-05T15:10:04.196Z,3.30
2019-05-05T15:12:37.314Z,3.73
2019-05-05T15:15:07.677Z,3.70
2019-05-05T15:17:36.197Z,3.90
2019-05-05T15:20:07.736Z,3.63
2019-05-05T15:22:36.199Z,3.07
2019-05-05T15:25:06.454Z,3.73
2019-05-05T15:27:34.949Z,3.80
2019-05-05T15:30:05.061Z,3.90
2019-05-05T15:32:34.404Z,3.60
2019-05-05T15:35:04.228Z,3.87
2019-05-05T15:37:32.712Z,3.53
2019-05-05T15:40:01.231Z,3.97
2019-05-05T15:42:29.714Z,4.53
2019-05-05T15:44:58.169Z,3.90
2019-05-05T15:47:26.614Z,3.57
2019-05-05T15:49:55.298Z,3.07
2019-05-05T15:52:24.323Z,3.77
2019-05-05T15:54:53.941Z,3.17
2019-05-05T15:57:24.200Z,3.37
2019-05-05T15:59:54.284Z,3.47
2019-05-05T16:02:24.025Z,3.73
2019-05-05T16:04:54.111Z,3.87
2019-05-05T16:07:24.280Z,3.60
2019-05-05T16:09:53.717Z,4.97
2019-05-05T16:12:32.023Z,4.43
2019-05-05T16:15:00.396Z,4.23
2019-05-05T16:17:30.636Z,3.80
2019-05-05T16:20:00.764Z,4.70
2019-05-05T16:22:30.853Z,4.47
2019-05-05T16:25:10.289Z,4.10
2019-05-05T16:27:39.679Z,3.67
2019-05-05T16:30:09.951Z,3.73
2019-05-05T16:32:39.434Z,3.60
2019-05-05T16:35:09.814Z,3.60
2019-05-05T16:37:38.393Z,3.90
2019-05-05T16:40:08.697Z,4.30
2019-05-05T16:42:37.299Z,3.73
2019-05-05T16:45:08.033Z,3.70
2019-05-05T16:47:36.779Z,4.00
2019-05-05T16:50:07.351Z,4.57
2019-05-05T16:52:37.450Z,4.53
2019-05-05T16:55:24.031Z,3.87
2019-05-05T16:57:52.491Z,3.70
2019-05-05T17:00:21.609Z,4.13
2019-05-05T17:02:50.328Z,3.67
2019-05-05T17:05:18.906Z,4.00
2019-05-05T17:07:47.393Z,4.27
2019-05-05T17:10:15.920Z,4.73
2019-05-05T17:12:44.532Z,4.53
2019-05-05T17:15:21.467Z,4.57
2019-05-05T17:17:57.453Z,4.60
2019-05-05T17:20:30.442Z,4.13
2019-05-05T17:23:06.628Z,3.73
2019-05-05T17:25:35.183Z,4.23
2019-05-05T17:28:04.546Z,4.80
2019-05-05T17:30:34.159Z,3.67
2019-05-05T17:33:03.789Z,3.80
2019-05-05T17:35:33.668Z,3.90
2019-05-05T17:38:09.851Z,3.73
2019-05-05T17:40:39.931Z,3.97
2019-05-05T17:43:27.850Z,3.57
2019-05-05T17:46:14.355Z,3.80
2019-05-05T17:49:00.625Z,3.70
2019-05-05T17:51:36.712Z,4.30
2019-05-05T17:54:24.737Z,4.03
2019-05-05T17:56:55.047Z,4.00
2019-05-05T17:59:23.719Z,4.67
2019-05-05T18:01:54.009Z,3.50
2019-05-05T18:04:22.651Z,4.20
2019-05-05T18:06:53.643Z,3.77
2019-05-05T18:09:34.457Z,3.60
2019-05-05T18:12:19.978Z,3.57
2019-05-05T18:14:50.053Z,3.90
2019-05-05T18:17:18.528Z,6.23
2019-05-05T18:19:46.998Z,4.10
2019-05-05T18:25:44.342Z,3.20
2019-05-05T18:28:30.437Z,3.90
2019-05-05T18:30:46.351Z,3.70
2019-05-05T18:33:14.876Z,3.40
2019-05-05T18:35:44.389Z,2.90
2019-05-05T18:38:13.724Z,3.27
2019-05-05T18:40:43.429Z,3.60
2019-05-05T18:43:13.624Z,3.87
2019-05-05T18:45:44.021Z,4.23
2019-05-05T18:48:13.886Z,4.23
2019-05-05T18:50:42.541Z,3.67
2019-05-05T18:53:10.996Z,4.13
2019-05-05T18:55:39.453Z,4.17
2019-05-05T18:58:08.180Z,4.20
2019-05-05T19:00:38.304Z,4.87
2019-05-05T19:03:17.807Z,3.70
2019-05-05T19:05:40.313Z,4.90
2019-05-05T19:08:10.428Z,3.90
2019-05-05T19:10:38.857Z,3.97
2019-05-05T19:13:07.322Z,4.27
2019-05-05T19:15:35.900Z,3.73
2019-05-05T19:18:06.483Z,3.60
2019-05-05T19:20:41.727Z,3.93
2019-05-05T19:23:10.180Z,6.70
2019-05-05T19:25:38.627Z,4.90
2019-05-05T19:28:07.093Z,4.40
2019-05-05T19:30:36.163Z,3.33
2019-05-05T19:33:05.198Z,3.90
2019-05-05T19:35:43.583Z,5.30
2019-05-05T19:38:04.919Z,4.50
2019-05-05T19:40:34.006Z,4.43
2019-05-05T19:43:04.361Z,3.70
2019-05-05T19:45:34.422Z,3.53
2019-05-05T19:48:21.125Z,4.07
2019-05-05T19:50:54.237Z,3.73
2019-05-05T19:53:24.597Z,4.50
2019-05-05T19:55:55.259Z,5.03
2019-05-05T19:58:23.780Z,3.33
2019-05-05T20:00:54.637Z,3.77
2019-05-05T20:03:24.148Z,3.27
2019-05-05T20:05:54.023Z,4.23
2019-05-05T20:08:24.040Z,3.63
2019-05-05T20:10:54.164Z,4.20
2019-05-05T20:13:23.097Z,3.77
2019-05-05T20:15:55.990Z,3.80
2019-05-05T20:18:24.979Z,3.70
2019-05-05T20:21:01.637Z,4.13
2019-05-05T20:23:24.388Z,3.93
2019-05-05T20:25:53.754Z,5.13
2019-05-05T20:28:24.109Z,4.03
2019-05-05T20:33:31.219Z,3.93
2019-05-05T20:36:04.008Z,3.80
2019-05-05T20:38:34.119Z,4.23
2019-05-05T20:41:14.310Z,3.80
2019-05-05T20:43:44.531Z,4.47
2019-05-05T20:46:12.607Z,3.93
2019-05-05T20:48:41.390Z,4.07
2019-05-05T20:51:09.993Z,3.87
2019-05-05T20:53:38.443Z,4.40
2019-05-05T20:56:06.882Z,4.17
2019-05-05T20:58:35.307Z,3.43
2019-05-05T21:01:05.081Z,4.23
2019-05-05T21:03:34.705Z,3.90
2019-05-05T21:06:04.361Z,3.93
2019-05-05T21:08:34.879Z,4.10
2019-05-05T21:11:04.400Z,4.33
2019-05-05T21:13:34.131Z,3.50
2019-05-05T21:16:02.909Z,4.07
2019-05-05T21:18:34.726Z,5.97
2019-05-05T21:21:05.071Z,4.23
2019-05-05T21:23:35.150Z,4.50
2019-05-05T21:26:05.244Z,4.87
2019-05-05T21:28:34.060Z,5.10
2019-05-05T21:31:04.652Z,4.13
2019-05-05T21:33:34.740Z,4.50
2019-05-05T21:36:04.305Z,4.60
2019-05-05T21:38:35.421Z,5.57
2019-05-05T21:41:04.313Z,4.90
2019-05-05T21:43:32.915Z,5.03
2019-05-05T21:46:01.363Z,4.80
2019-05-05T21:48:29.844Z,4.83
2019-05-05T21:51:05.480Z,5.17
2019-05-05T21:53:44.767Z,4.80
2019-05-05T21:56:31.467Z,4.87
2019-05-05T21:59:00.011Z,5.03
2019-05-05T22:01:29.597Z,5.23
2019-05-05T22:03:58.110Z,5.73
2019-05-05T22:06:26.591Z,5.60
2019-05-05T22:08:55.071Z,5.80
2019-05-05T22:11:24.236Z,5.33
2019-05-05T22:13:54.002Z,4.93
2019-05-05T22:16:22.807Z,5.67
2019-05-05T22:18:53.864Z,5.47
2019-05-05T22:21:26.508Z,5.77
2019-05-05T22:24:15.756Z,6.10
2019-05-05T22:26:44.731Z,5.40
2019-05-05T22:29:14.069Z,5.80
2019-05-05T22:31:43.709Z,5.83
2019-05-05T22:34:14.402Z,5.80
2019-05-05T22:36:44.613Z,6.00
2019-05-05T22:39:16.475Z,6.07
2019-05-05T22:41:44.522Z,5.03
2019-05-05T22:44:13.946Z,4.50
2019-05-05T22:46:42.761Z,4.73
2019-05-05T22:49:11.235Z,5.03
2019-05-05T22:51:40.897Z,4.93
2019-05-05T22:54:09.645Z,5.73
2019-05-05T22:56:38.375Z,5.60
2019-05-05T22:59:06.954Z,5.40
2019-05-05T23:01:35.443Z,6.27
2019-05-05T23:04:08.343Z,5.60
2019-05-05T23:06:38.507Z,6.03
2019-05-05T23:09:10.469Z,6.40
2019-05-05T23:11:38.982Z,5.53
2019-05-05T23:14:25.426Z,5.00
2019-05-05T23:16:55.517Z,5.70
2019-05-05T23:19:25.758Z,5.40
2019-05-05T23:22:16.770Z,6.10
2019-05-05T23:24:46.938Z,6.67
2019-05-05T23:27:34.372Z,6.03
2019-05-05T23:30:03.280Z,6.03
2019-05-05T23:32:31.726Z,6.43
2019-05-05T23:35:00.166Z,5.47
2019-05-05T23:37:28.618Z,6.03
2019-05-05T23:39:57.403Z,5.83
2019-05-05T23:42:25.838Z,5.90
2019-05-05T23:44:54.294Z,6.13
2019-05-05T23:47:24.783Z,6.07
2019-05-05T23:49:53.750Z,6.17
2019-05-05T23:52:24.013Z,5.73
2019-05-05T23:54:52.538Z,5.77
2019-05-05T23:57:21.006Z,6.03
2019-05-05T23:59:49.453Z,6.03
